sensor_id;sensor_type;location;lat;lon;timestamp;P1;durP1;ratioP1;P2;durP2;ratioP2
23730;SDS011;12046;44.702;10.622;2023-02-01T13:02:01;10.40;;;8.43;;
23730;SDS011;12046;44.702;10.622;2023-02-01T13:07:45;11.60;;;8.55;;
23730;SDS011;12046;44.702;10.622;2023-02-01T13:10:35;10.85;;;8.27;;
23730;SDS011;12046;44.702;10.622;2023-02-01T13:18:41;14.85;;;8.73;;
23730;SDS011;12046;44.702;10.622;2023-02-01T13:21:18;11.55;;;9.15;;
23730;SDS011;12046;44.702;10.622;2023-02-01T13:23:49;17.40;;;8.55;;
23730;SDS011;12046;44.702;10.622;2023-02-01T13:26:17;11.38;;;8.73;;
23730;SDS011;12046;44.702;10.622;2023-02-01T13:28:47;10.10;;;7.97;;
23730;SDS011;12046;44.702;10.622;2023-02-01T13:31:23;11.02;;;8.73;;
23730;SDS011;12046;44.702;10.622;2023-02-01T13:37:23;12.55;;;9.52;;
23730;SDS011;12046;44.702;10.622;2023-02-01T13:40:30;11.25;;;8.65;;
23730;SDS011;12046;44.702;10.622;2023-02-01T13:43:15;9.48;;;8.15;;
23730;SDS011;12046;44.702;10.622;2023-02-01T13:45:51;12.32;;;7.85;;
23730;SDS011;12046;44.702;10.622;2023-02-01T13:48:20;12.38;;;8.27;;
23730;SDS011;12046;44.702;10.622;2023-02-01T13:50:54;12.23;;;8.45;;
23730;SDS011;12046;44.702;10.622;2023-02-01T13:53:29;11.02;;;7.70;;
23730;SDS011;12046;44.702;10.622;2023-02-01T13:56:01;10.07;;;7.68;;
23730;SDS011;12046;44.702;10.622;2023-02-01T13:58:36;13.82;;;8.45;;
23730;SDS011;12046;44.702;10.622;2023-02-01T14:03:51;9.35;;;7.70;;
23730;SDS011;12046;44.702;10.622;2023-02-01T14:11:51;11.88;;;7.75;;
23730;SDS011;12046;44.702;10.622;2023-02-01T14:21:47;11.65;;;8.55;;
23730;SDS011;12046;44.702;10.622;2023-02-01T14:24:32;11.80;;;8.50;;
23730;SDS011;12046;44.702;10.622;2023-02-01T14:26:59;12.70;;;9.05;;
23730;SDS011;12046;44.702;10.622;2023-02-01T14:29:34;13.95;;;8.57;;
23730;SDS011;12046;44.702;10.622;2023-02-01T14:32:15;10.27;;;8.32;;
23730;SDS011;12046;44.702;10.622;2023-02-01T14:39:52;12.80;;;9.20;;
23730;SDS011;12046;44.702;10.622;2023-02-01T14:42:38;14.93;;;9.60;;
23730;SDS011;12046;44.702;10.622;2023-02-01T14:47:49;14.15;;;9.50;;
23730;SDS011;12046;44.702;10.622;2023-02-01T14:50:24;10.38;;;8.82;;
23730;SDS011;12046;44.702;10.622;2023-02-01T14:53:04;18.05;;;8.48;;
23730;SDS011;12046;44.702;10.622;2023-02-01T15:00:56;14.68;;;9.30;;
23730;SDS011;12046;44.702;10.622;2023-02-01T15:06:18;12.48;;;8.68;;
23730;SDS011;12046;44.702;10.622;2023-02-01T15:08:46;14.85;;;9.32;;
23730;SDS011;12046;44.702;10.622;2023-02-01T15:11:14;12.65;;;9.25;;
23730;SDS011;12046;44.702;10.622;2023-02-01T15:13:47;12.43;;;8.55;;
23730;SDS011;12046;44.702;10.622;2023-02-01T15:16:15;11.30;;;8.18;;
23730;SDS011;12046;44.702;10.622;2023-02-01T15:18:42;12.52;;;9.02;;
23730;SDS011;12046;44.702;10.622;2023-02-01T15:21:22;13.55;;;8.43;;
23730;SDS011;12046;44.702;10.622;2023-02-01T15:23:50;16.67;;;8.73;;
23730;SDS011;12046;44.702;10.622;2023-02-01T15:26:34;18.48;;;8.50;;
23730;SDS011;12046;44.702;10.622;2023-02-01T15:29:00;12.05;;;8.45;;
23730;SDS011;12046;44.702;10.622;2023-02-01T15:31:59;13.52;;;9.07;;
23730;SDS011;12046;44.702;10.622;2023-02-01T15:34:18;14.98;;;9.20;;
23730;SDS011;12046;44.702;10.622;2023-02-01T15:36:45;12.32;;;8.65;;
23730;SDS011;12046;44.702;10.622;2023-02-01T15:39:19;10.80;;;8.65;;
23730;SDS011;12046;44.702;10.622;2023-02-01T15:41:55;13.30;;;9.52;;
23730;SDS011;12046;44.702;10.622;2023-02-01T15:46:55;12.75;;;8.68;;
23730;SDS011;12046;44.702;10.622;2023-02-01T15:49:28;9.90;;;8.15;;
23730;SDS011;12046;44.702;10.622;2023-02-01T15:51:58;12.80;;;9.15;;
23730;SDS011;12046;44.702;10.622;2023-02-01T15:54:27;12.48;;;9.52;;
23730;SDS011;12046;44.702;10.622;2023-02-01T15:57:01;11.70;;;9.18;;
23730;SDS011;12046;44.702;10.622;2023-02-01T15:59:30;13.90;;;8.82;;
23730;SDS011;12046;44.702;10.622;2023-02-01T16:01:59;11.57;;;9.05;;
23730;SDS011;12046;44.702;10.622;2023-02-01T16:04:26;13.65;;;9.32;;
23730;SDS011;12046;44.702;10.622;2023-02-01T16:07:02;10.73;;;8.90;;
23730;SDS011;12046;44.702;10.622;2023-02-01T16:09:39;14.68;;;10.70;;
23730;SDS011;12046;44.702;10.622;2023-02-01T16:12:23;18.42;;;11.30;;
23730;SDS011;12046;44.702;10.622;2023-02-01T16:14:57;21.08;;;10.50;;
23730;SDS011;12046;44.702;10.622;2023-02-01T16:17:22;17.13;;;11.27;;
23730;SDS011;12046;44.702;10.622;2023-02-01T16:19:48;18.17;;;10.93;;
23730;SDS011;12046;44.702;10.622;2023-02-01T16:22:15;19.45;;;12.60;;
23730;SDS011;12046;44.702;10.622;2023-02-01T16:24:40;17.25;;;11.00;;
23730;SDS011;12046;44.702;10.622;2023-02-01T16:27:06;21.70;;;11.77;;
23730;SDS011;12046;44.702;10.622;2023-02-01T16:29:32;19.48;;;11.75;;
23730;SDS011;12046;44.702;10.622;2023-02-01T16:31:58;18.25;;;11.23;;
23730;SDS011;12046;44.702;10.622;2023-02-01T16:34:24;19.75;;;12.10;;
23730;SDS011;12046;44.702;10.622;2023-02-01T16:36:51;18.90;;;12.60;;
23730;SDS011;12046;44.702;10.622;2023-02-01T16:39:20;23.20;;;12.13;;
23730;SDS011;12046;44.702;10.622;2023-02-01T16:41:49;18.23;;;11.32;;
23730;SDS011;12046;44.702;10.622;2023-02-01T16:44:15;17.42;;;10.43;;
23730;SDS011;12046;44.702;10.622;2023-02-01T16:46:42;21.85;;;11.40;;
23730;SDS011;12046;44.702;10.622;2023-02-01T16:49:21;22.35;;;10.98;;
23730;SDS011;12046;44.702;10.622;2023-02-01T16:51:49;18.13;;;10.98;;
23730;SDS011;12046;44.702;10.622;2023-02-01T16:54:18;19.35;;;11.00;;
23730;SDS011;12046;44.702;10.622;2023-02-01T16:56:44;15.88;;;10.50;;
23730;SDS011;12046;44.702;10.622;2023-02-01T16:59:11;19.45;;;10.77;;
23730;SDS011;12046;44.702;10.622;2023-02-01T17:01:38;23.15;;;13.40;;
23730;SDS011;12046;44.702;10.622;2023-02-01T17:04:07;21.83;;;12.90;;
23730;SDS011;12046;44.702;10.622;2023-02-01T17:06:33;26.83;;;12.40;;
23730;SDS011;12046;44.702;10.622;2023-02-01T17:09:04;23.70;;;13.90;;
23730;SDS011;12046;44.702;10.622;2023-02-01T17:11:30;19.15;;;12.18;;
23730;SDS011;12046;44.702;10.622;2023-02-01T17:14:19;18.70;;;12.95;;
23730;SDS011;12046;44.702;10.622;2023-02-01T17:16:45;20.15;;;12.00;;
23730;SDS011;12046;44.702;10.622;2023-02-01T17:19:13;23.27;;;11.90;;
23730;SDS011;12046;44.702;10.622;2023-02-01T17:21:45;19.38;;;12.23;;
23730;SDS011;12046;44.702;10.622;2023-02-01T17:24:18;24.33;;;13.82;;
23730;SDS011;12046;44.702;10.622;2023-02-01T17:26:45;21.17;;;13.43;;
23730;SDS011;12046;44.702;10.622;2023-02-01T17:29:11;23.48;;;13.65;;
23730;SDS011;12046;44.702;10.622;2023-02-01T17:31:38;28.10;;;14.70;;
23730;SDS011;12046;44.702;10.622;2023-02-01T17:34:07;26.25;;;14.43;;
23730;SDS011;12046;44.702;10.622;2023-02-01T17:36:33;27.27;;;13.48;;
23730;SDS011;12046;44.702;10.622;2023-02-01T17:39:00;24.08;;;14.32;;
23730;SDS011;12046;44.702;10.622;2023-02-01T17:41:27;22.55;;;14.07;;
23730;SDS011;12046;44.702;10.622;2023-02-01T17:43:52;25.48;;;14.07;;
23730;SDS011;12046;44.702;10.622;2023-02-01T17:46:18;21.45;;;13.82;;
23730;SDS011;12046;44.702;10.622;2023-02-01T17:48:45;23.70;;;16.10;;
23730;SDS011;12046;44.702;10.622;2023-02-01T17:51:18;21.70;;;15.80;;
23730;SDS011;12046;44.702;10.622;2023-02-01T17:53:45;26.85;;;14.93;;
23730;SDS011;12046;44.702;10.622;2023-02-01T17:56:15;23.90;;;15.55;;
23730;SDS011;12046;44.702;10.622;2023-02-01T17:58:43;25.02;;;15.23;;
23730;SDS011;12046;44.702;10.622;2023-02-01T18:01:13;25.25;;;15.10;;
23730;SDS011;12046;44.702;10.622;2023-02-01T18:03:42;26.55;;;15.57;;
23730;SDS011;12046;44.702;10.622;2023-02-01T18:06:10;21.48;;;14.95;;
23730;SDS011;12046;44.702;10.622;2023-02-01T18:08:39;27.88;;;16.65;;
23730;SDS011;12046;44.702;10.622;2023-02-01T18:11:07;24.50;;;15.82;;
23730;SDS011;12046;44.702;10.622;2023-02-01T18:13:36;25.48;;;15.45;;
23730;SDS011;12046;44.702;10.622;2023-02-01T18:16:02;26.38;;;16.17;;
23730;SDS011;12046;44.702;10.622;2023-02-01T18:18:28;23.48;;;15.82;;
23730;SDS011;12046;44.702;10.622;2023-02-01T18:20:57;24.88;;;16.00;;
23730;SDS011;12046;44.702;10.622;2023-02-01T18:23:23;26.58;;;17.00;;
23730;SDS011;12046;44.702;10.622;2023-02-01T18:25:50;27.15;;;16.58;;
23730;SDS011;12046;44.702;10.622;2023-02-01T18:28:17;30.17;;;17.30;;
23730;SDS011;12046;44.702;10.622;2023-02-01T18:30:45;26.00;;;16.85;;
23730;SDS011;12046;44.702;10.622;2023-02-01T18:33:13;26.38;;;18.08;;
23730;SDS011;12046;44.702;10.622;2023-02-01T18:35:41;28.23;;;17.13;;
23730;SDS011;12046;44.702;10.622;2023-02-01T18:38:07;26.00;;;16.50;;
23730;SDS011;12046;44.702;10.622;2023-02-01T18:40:52;29.20;;;17.00;;
23730;SDS011;12046;44.702;10.622;2023-02-01T18:43:21;28.42;;;18.17;;
23730;SDS011;12046;44.702;10.622;2023-02-01T18:45:48;61.97;;;39.05;;
23730;SDS011;12046;44.702;10.622;2023-02-01T18:48:14;53.47;;;33.50;;
23730;SDS011;12046;44.702;10.622;2023-02-01T18:50:42;42.08;;;25.95;;
23730;SDS011;12046;44.702;10.622;2023-02-01T18:53:11;41.08;;;21.90;;
23730;SDS011;12046;44.702;10.622;2023-02-01T18:55:40;32.75;;;22.63;;
23730;SDS011;12046;44.702;10.622;2023-02-01T18:58:07;34.85;;;19.50;;
23730;SDS011;12046;44.702;10.622;2023-02-01T19:00:36;32.88;;;19.95;;
23730;SDS011;12046;44.702;10.622;2023-02-01T19:03:01;26.60;;;18.65;;
23730;SDS011;12046;44.702;10.622;2023-02-01T19:05:28;36.60;;;22.40;;
23730;SDS011;12046;44.702;10.622;2023-02-01T19:07:55;37.85;;;23.20;;
23730;SDS011;12046;44.702;10.622;2023-02-01T19:10:21;38.33;;;21.90;;
23730;SDS011;12046;44.702;10.622;2023-02-01T19:12:49;35.00;;;20.75;;
23730;SDS011;12046;44.702;10.622;2023-02-01T19:15:16;34.00;;;21.40;;
23730;SDS011;12046;44.702;10.622;2023-02-01T19:17:43;34.38;;;20.70;;
23730;SDS011;12046;44.702;10.622;2023-02-01T19:20:18;32.90;;;20.42;;
23730;SDS011;12046;44.702;10.622;2023-02-01T19:22:45;31.83;;;20.70;;
23730;SDS011;12046;44.702;10.622;2023-02-01T19:25:16;33.15;;;21.23;;
23730;SDS011;12046;44.702;10.622;2023-02-01T19:27:45;32.85;;;20.83;;
23730;SDS011;12046;44.702;10.622;2023-02-01T19:30:11;28.05;;;17.85;;
23730;SDS011;12046;44.702;10.622;2023-02-01T19:32:38;32.38;;;18.05;;
23730;SDS011;12046;44.702;10.622;2023-02-01T19:35:05;26.90;;;18.45;;
23730;SDS011;12046;44.702;10.622;2023-02-01T19:37:32;33.70;;;20.00;;
23730;SDS011;12046;44.702;10.622;2023-02-01T19:39:57;29.35;;;19.05;;
23730;SDS011;12046;44.702;10.622;2023-02-01T19:42:24;30.30;;;17.88;;
23730;SDS011;12046;44.702;10.622;2023-02-01T19:44:50;31.67;;;19.98;;
23730;SDS011;12046;44.702;10.622;2023-02-01T19:47:16;28.63;;;17.05;;
23730;SDS011;12046;44.702;10.622;2023-02-01T19:49:42;24.95;;;16.92;;
23730;SDS011;12046;44.702;10.622;2023-02-01T19:52:08;21.88;;;14.77;;
23730;SDS011;12046;44.702;10.622;2023-02-01T19:54:34;25.13;;;16.48;;
23730;SDS011;12046;44.702;10.622;2023-02-01T19:57:00;30.23;;;18.05;;
23730;SDS011;12046;44.702;10.622;2023-02-01T19:59:26;28.88;;;17.55;;
23730;SDS011;12046;44.702;10.622;2023-02-01T20:01:52;23.58;;;15.85;;
23730;SDS011;12046;44.702;10.622;2023-02-01T20:04:18;26.48;;;18.25;;
23730;SDS011;12046;44.702;10.622;2023-02-01T20:06:44;29.05;;;17.95;;
23730;SDS011;12046;44.702;10.622;2023-02-01T20:09:15;29.98;;;18.25;;
23730;SDS011;12046;44.702;10.622;2023-02-01T20:11:45;34.13;;;20.55;;
23730;SDS011;12046;44.702;10.622;2023-02-01T20:14:11;31.38;;;18.52;;
23730;SDS011;12046;44.702;10.622;2023-02-01T20:16:38;32.83;;;17.98;;
23730;SDS011;12046;44.702;10.622;2023-02-01T20:19:05;28.67;;;18.15;;
23730;SDS011;12046;44.702;10.622;2023-02-01T20:21:31;31.70;;;18.45;;
23730;SDS011;12046;44.702;10.622;2023-02-01T20:23:57;27.95;;;18.50;;
23730;SDS011;12046;44.702;10.622;2023-02-01T20:26:23;26.55;;;18.92;;
23730;SDS011;12046;44.702;10.622;2023-02-01T20:28:50;30.65;;;17.70;;
23730;SDS011;12046;44.702;10.622;2023-02-01T20:31:16;35.22;;;21.50;;
23730;SDS011;12046;44.702;10.622;2023-02-01T20:33:42;31.17;;;19.70;;
23730;SDS011;12046;44.702;10.622;2023-02-01T20:36:08;26.38;;;17.95;;
23730;SDS011;12046;44.702;10.622;2023-02-01T20:38:34;31.92;;;19.17;;
23730;SDS011;12046;44.702;10.622;2023-02-01T20:41:00;28.25;;;19.58;;
23730;SDS011;12046;44.702;10.622;2023-02-01T20:43:31;28.90;;;18.08;;
23730;SDS011;12046;44.702;10.622;2023-02-01T20:45:58;28.27;;;19.98;;
23730;SDS011;12046;44.702;10.622;2023-02-01T20:48:24;28.40;;;18.45;;
23730;SDS011;12046;44.702;10.622;2023-02-01T20:50:54;29.50;;;18.13;;
23730;SDS011;12046;44.702;10.622;2023-02-01T20:53:21;27.65;;;17.00;;
23730;SDS011;12046;44.702;10.622;2023-02-01T20:55:51;30.55;;;17.15;;
23730;SDS011;12046;44.702;10.622;2023-02-01T20:58:17;25.98;;;16.40;;
23730;SDS011;12046;44.702;10.622;2023-02-01T21:00:44;26.85;;;16.65;;
23730;SDS011;12046;44.702;10.622;2023-02-01T21:03:10;24.80;;;16.95;;
23730;SDS011;12046;44.702;10.622;2023-02-01T21:05:36;26.80;;;16.73;;
23730;SDS011;12046;44.702;10.622;2023-02-01T21:08:11;27.60;;;16.70;;
23730;SDS011;12046;44.702;10.622;2023-02-01T21:10:39;25.73;;;15.82;;
23730;SDS011;12046;44.702;10.622;2023-02-01T21:13:06;24.80;;;16.05;;
23730;SDS011;12046;44.702;10.622;2023-02-01T21:15:31;26.20;;;15.70;;
23730;SDS011;12046;44.702;10.622;2023-02-01T21:18:01;29.63;;;16.20;;
23730;SDS011;12046;44.702;10.622;2023-02-01T21:20:32;23.52;;;14.15;;
23730;SDS011;12046;44.702;10.622;2023-02-01T21:22:57;21.58;;;13.48;;
23730;SDS011;12046;44.702;10.622;2023-02-01T21:25:23;22.83;;;13.13;;
23730;SDS011;12046;44.702;10.622;2023-02-01T21:27:49;17.38;;;12.57;;
23730;SDS011;12046;44.702;10.622;2023-02-01T21:30:15;21.15;;;12.00;;
23730;SDS011;12046;44.702;10.622;2023-02-01T21:32:40;20.02;;;12.57;;
23730;SDS011;12046;44.702;10.622;2023-02-01T21:35:06;19.67;;;11.80;;
23730;SDS011;12046;44.702;10.622;2023-02-01T21:37:33;16.52;;;10.60;;
23730;SDS011;12046;44.702;10.622;2023-02-01T21:39:59;18.90;;;10.23;;
23730;SDS011;12046;44.702;10.622;2023-02-01T21:42:25;21.73;;;11.40;;
23730;SDS011;12046;44.702;10.622;2023-02-01T21:44:51;23.35;;;13.13;;
23730;SDS011;12046;44.702;10.622;2023-02-01T21:47:19;22.88;;;15.07;;
23730;SDS011;12046;44.702;10.622;2023-02-01T21:49:46;21.85;;;14.73;;
23730;SDS011;12046;44.702;10.622;2023-02-01T21:52:13;23.50;;;14.82;;
23730;SDS011;12046;44.702;10.622;2023-02-01T21:54:40;26.33;;;15.35;;
23730;SDS011;12046;44.702;10.622;2023-02-01T21:57:06;22.02;;;14.93;;
23730;SDS011;12046;44.702;10.622;2023-02-01T21:59:36;23.20;;;13.40;;
23730;SDS011;12046;44.702;10.622;2023-02-01T22:02:03;19.77;;;15.00;;
23730;SDS011;12046;44.702;10.622;2023-02-01T22:04:31;19.88;;;13.18;;
23730;SDS011;12046;44.702;10.622;2023-02-01T22:06:59;18.30;;;13.57;;
23730;SDS011;12046;44.702;10.622;2023-02-01T22:09:25;21.25;;;14.23;;
23730;SDS011;12046;44.702;10.622;2023-02-01T22:11:51;23.90;;;16.05;;
23730;SDS011;12046;44.702;10.622;2023-02-01T22:14:19;20.90;;;13.25;;
23730;SDS011;12046;44.702;10.622;2023-02-01T22:16:45;29.05;;;18.95;;
23730;SDS011;12046;44.702;10.622;2023-02-01T22:19:13;30.25;;;19.85;;
23730;SDS011;12046;44.702;10.622;2023-02-01T22:21:40;25.23;;;16.65;;
23730;SDS011;12046;44.702;10.622;2023-02-01T22:24:09;25.02;;;15.13;;
23730;SDS011;12046;44.702;10.622;2023-02-01T22:26:38;23.48;;;15.20;;
23730;SDS011;12046;44.702;10.622;2023-02-01T22:29:07;25.02;;;16.25;;
23730;SDS011;12046;44.702;10.622;2023-02-01T22:31:33;22.55;;;15.85;;
23730;SDS011;12046;44.702;10.622;2023-02-01T22:34:00;24.67;;;15.13;;
23730;SDS011;12046;44.702;10.622;2023-02-01T22:36:25;23.13;;;13.80;;
23730;SDS011;12046;44.702;10.622;2023-02-01T22:38:51;27.20;;;15.07;;
23730;SDS011;12046;44.702;10.622;2023-02-01T22:41:18;17.77;;;12.40;;
23730;SDS011;12046;44.702;10.622;2023-02-01T22:43:46;22.05;;;13.95;;
23730;SDS011;12046;44.702;10.622;2023-02-01T22:46:16;21.08;;;13.02;;
23730;SDS011;12046;44.702;10.622;2023-02-01T22:48:44;22.17;;;13.50;;
23730;SDS011;12046;44.702;10.622;2023-02-01T22:51:12;21.63;;;12.88;;
23730;SDS011;12046;44.702;10.622;2023-02-01T22:56:11;18.75;;;12.50;;
23730;SDS011;12046;44.702;10.622;2023-02-01T22:58:37;20.63;;;13.02;;
23730;SDS011;12046;44.702;10.622;2023-02-01T23:01:05;19.73;;;12.30;;
23730;SDS011;12046;44.702;10.622;2023-02-01T23:03:35;20.98;;;12.68;;
23730;SDS011;12046;44.702;10.622;2023-02-01T23:06:04;21.48;;;13.20;;
23730;SDS011;12046;44.702;10.622;2023-02-01T23:08:31;20.75;;;12.25;;
23730;SDS011;12046;44.702;10.622;2023-02-01T23:11:06;17.35;;;11.60;;
23730;SDS011;12046;44.702;10.622;2023-02-01T23:13:33;16.65;;;12.25;;
23730;SDS011;12046;44.702;10.622;2023-02-01T23:16:07;25.77;;;15.48;;
23730;SDS011;12046;44.702;10.622;2023-02-01T23:18:36;17.23;;;12.02;;
23730;SDS011;12046;44.702;10.622;2023-02-01T23:21:07;18.77;;;12.50;;
23730;SDS011;12046;44.702;10.622;2023-02-01T23:23:44;17.85;;;11.13;;
23730;SDS011;12046;44.702;10.622;2023-02-01T23:28:40;17.27;;;11.05;;
23730;SDS011;12046;44.702;10.622;2023-02-01T23:31:07;19.73;;;11.30;;
23730;SDS011;12046;44.702;10.622;2023-02-01T23:33:34;14.30;;;9.52;;
23730;SDS011;12046;44.702;10.622;2023-02-01T23:36:01;17.63;;;9.85;;
23730;SDS011;12046;44.702;10.622;2023-02-01T23:38:31;17.45;;;10.50;;
23730;SDS011;12046;44.702;10.622;2023-02-01T23:41:02;16.10;;;10.13;;
23730;SDS011;12046;44.702;10.622;2023-02-01T23:43:30;29.85;;;17.80;;
23730;SDS011;12046;44.702;10.622;2023-02-01T23:46:15;20.88;;;13.57;;
23730;SDS011;12046;44.702;10.622;2023-02-01T23:48:42;21.08;;;12.00;;
23730;SDS011;12046;44.702;10.622;2023-02-01T23:51:08;18.85;;;11.02;;
23730;SDS011;12046;44.702;10.622;2023-02-01T23:53:34;17.80;;;10.45;;
23730;SDS011;12046;44.702;10.622;2023-02-01T23:56:00;28.35;;;15.50;;
23730;SDS011;12046;44.702;10.622;2023-02-01T23:58:26;25.55;;;16.15;;
